Time;durP1;ratioP1;P1;durP2;ratioP2;P2;SDS_P1;SDS_P2;PMS_P1;PMS_P2;Temp;Humidity;BMP_temperature;BMP_pressure;BME280_temperature;BME280_humidity;BME280_pressure;Samples;Min_cycle;Max_cycle;Signal;HPM_P1;HPM_P2
2022/08/10 00:00:21;;;;;;;;;;;;;;;17.08;87.59;97843.47;10293941;28;20061;-56
2022/08/10 00:05:21;;;;;;;11.02;8.65;;;;;;;17.00;87.57;97840.16;10277872;28;19952;-56
2022/08/10 00:10:22;;;;;;;12.18;9.52;;;;;;;16.90;87.66;97832.53;10253013;28;20467;-56
2022/08/10 00:15:22;;;;;;;14.38;10.70;;;;;;;16.86;87.87;97838.78;10253698;28;20070;-56
2022/08/10 00:20:21;;;;;;;12.18;10.00;;;;;;;16.77;87.90;97836.34;10252931;28;20693;-56
2022/08/10 00:25:20;;;;;;;;;;;;;;;16.80;88.08;97841.50;10259775;28;21858;-56
2022/08/10 00:30:19;;;;;;;11.60;9.23;;;;;;;16.79;87.94;97837.16;10291703;28;20024;-56
2022/08/10 00:35:18;;;;;;;;;;;;;;;16.80;87.82;97833.66;10287268;28;20078;-56
2022/08/10 00:40:17;;;;;;;12.47;10.63;;;;;;;16.81;87.96;97835.38;10294031;28;20067;-55
2022/08/10 00:45:16;;;;;;;12.27;10.98;;;;;;;16.81;88.01;97840.63;10293911;28;20069;-56
2022/08/10 00:50:16;;;;;;;;;;;;;;;16.78;88.14;97839.84;10295306;28;20026;-55
2022/08/10 00:55:16;;;;;;;12.75;10.35;;;;;;;16.63;88.51;97817.47;10273451;28;19955;-56
2022/08/10 01:00:15;;;;;;;14.77;10.95;;;;;;;16.77;88.79;97832.84;10254532;28;20477;-55
2022/08/10 01:05:15;;;;;;;13.95;10.80;;;;;;;16.75;89.01;97830.28;10272823;28;20068;-55
2022/08/10 01:10:22;;;;;;;11.73;10.23;;;;;;;16.71;89.05;97829.47;10292880;28;20058;-56
2022/08/10 01:15:25;;;;;;;12.52;9.55;;;;;;;16.52;89.59;97825.59;10294736;28;20488;-55
2022/08/10 01:20:24;;;;;;;16.30;11.20;;;;;;;16.44;89.76;97833.66;10288709;28;20058;-56
2022/08/10 01:25:29;;;;;;;;;;;;;;;16.32;90.37;97841.75;10254827;28;20038;-56
2022/08/10 01:30:31;;;;;;;19.17;10.77;;;;;;;16.23;90.54;97839.34;10254189;28;19949;-56
2022/08/10 01:35:56;;;;;;;13.52;11.50;;;;;;;16.09;91.26;97835.31;10253453;28;20555;-56
2022/08/10 01:41:00;;;;;;;14.68;12.18;;;;;;;15.94;92.55;97838.22;10264418;28;20550;-56
2022/08/10 01:46:02;;;;;;;16.42;13.25;;;;;;;15.91;93.01;97830.44;10290354;28;20053;-55
2022/08/10 01:51:14;;;;;;;17.83;13.05;;;;;;;15.93;92.76;97830.41;10288475;28;20057;-58
2022/08/10 01:56:15;;;;;;;19.08;13.18;;;;;;;15.95;92.70;97821.66;10290684;28;20065;-56
2022/08/10 02:01:21;;;;;;;16.40;12.90;;;;;;;16.01;92.42;97825.88;10290162;28;20104;-56
2022/08/10 02:06:23;;;;;;;16.58;12.52;;;;;;;16.04;92.49;97817.94;10290735;28;20068;-56
2022/08/10 02:11:27;;;;;;;18.00;12.32;;;;;;;15.97;92.79;97818.97;10275070;28;20069;-56
2022/08/10 02:16:28;;;;;;;15.13;11.82;;;;;;;15.88;93.44;97826.16;10257935;28;20077;-56
2022/08/10 02:21:29;;;;;;;14.27;11.82;;;;;;;15.77;93.78;97812.38;10272130;28;20057;-56
2022/08/10 02:26:28;;;;;;;14.05;11.40;;;;;;;15.65;94.12;97804.81;10296444;28;20077;-57
2022/08/10 02:31:29;;;;;;;15.00;11.45;;;;;;;15.68;93.25;97810.81;10294253;28;20590;-56
2022/08/10 02:36:33;;;;;;;16.73;11.65;;;;;;;15.64;93.32;97811.75;10296989;28;20482;-56
2022/08/10 02:41:45;;;;;;;14.02;11.73;;;;;;;15.60;93.50;97824.94;10295246;28;20827;-57
2022/08/10 02:46:49;;;;;;;18.52;12.90;;;;;;;15.54;93.65;97823.31;10295469;28;20064;-57
2022/08/10 02:52:03;;;;;;;18.52;13.88;;;;;;;15.56;93.31;97810.22;10294929;28;20480;-57
2022/08/10 02:57:15;;;;;;;18.38;12.38;;;;;;;15.60;93.79;97814.47;10295815;28;20475;-57
2022/08/10 03:02:22;;;;;;;14.43;12.00;;;;;;;15.60;93.60;97812.75;10294309;28;20076;-56
2022/08/10 03:07:24;;;;;;;14.25;12.18;;;;;;;15.73;93.21;97831.66;10295889;28;20061;-57
2022/08/10 03:12:25;;;;;;;20.10;12.30;;;;;;;15.76;93.25;97839.44;10293478;28;20069;-57
2022/08/10 03:17:25;;;;;;;21.75;13.23;;;;;;;15.78;93.31;97840.25;10295442;28;20057;-57
2022/08/10 03:22:26;;;;;;;17.42;11.45;;;;;;;15.77;93.40;97848.16;10292828;28;20072;-57
2022/08/10 03:27:25;;;;;;;13.77;11.45;;;;;;;15.69;93.06;97864.00;10294155;28;20064;-57
2022/08/10 03:32:25;;;;;;;15.48;11.93;;;;;;;15.54;93.33;97857.31;10293606;28;20073;-56
2022/08/10 03:37:26;;;;;;;19.60;14.55;;;;;;;15.43;93.68;97864.50;10294700;28;20085;-57
2022/08/10 03:42:27;;;;;;;17.20;13.73;;;;;;;15.41;93.62;97871.50;10295291;28;20490;-57
2022/08/10 03:47:28;;;;;;;16.92;12.68;;;;;;;15.49;93.56;97872.25;10295617;28;20085;-57
2022/08/10 03:52:28;;;;;;;16.52;13.55;;;;;;;15.57;93.62;97888.63;10265292;28;20484;-57
2022/08/10 03:57:28;;;;;;;17.17;12.75;;;;;;;15.70;93.65;97889.28;10255330;28;20581;-56
2022/08/10 04:02:29;;;;;;;13.43;10.73;;;;;;;15.76;93.39;97883.91;10284302;28;20069;-57
2022/08/10 04:07:29;;;;;;;16.63;11.63;;;;;;;15.76;93.01;97881.28;10293509;28;20132;-56
2022/08/10 04:12:28;;;;;;;15.77;11.02;;;;;;;15.77;92.72;97895.25;10291988;28;20069;-57
2022/08/10 04:17:27;;;;;;;;;;;;;;;15.87;92.56;97895.06;10295668;28;20121;-57
2022/08/10 04:22:27;;;;;;;15.43;10.18;;;;;;;15.93;91.38;97896.72;10293497;28;19917;-57
2022/08/10 04:27:28;;;;;;;13.35;10.50;;;;;;;15.82;91.25;97888.22;10295179;28;20077;-57
2022/08/10 04:32:30;;;;;;;23.23;10.80;;;;;;;15.75;91.62;97897.03;10293299;28;20077;-56
2022/08/10 04:37:30;;;;;;;22.65;10.63;;;;;;;15.67;92.15;97907.66;10293424;28;20076;-56
2022/08/10 04:42:30;;;;;;;16.02;10.95;;;;;;;15.67;92.18;97910.28;10290095;28;20072;-56
2022/08/10 04:47:29;;;;;;;12.02;10.68;;;;;;;15.71;92.33;97901.47;10284734;28;20049;-56
2022/08/10 04:52:28;;;;;;;;;;;;;;;15.83;91.81;97895.16;10268764;28;20042;-57
2022/08/10 04:57:27;;;;;;;15.32;10.65;;;;;;;16.06;91.24;97890.31;10284724;28;19947;-57
2022/08/10 05:02:26;;;;;;;;;;;;;;;16.33;90.86;97890.63;10289495;28;20048;-56
2022/08/10 05:07:25;;;;;;;16.00;10.25;;;;;;;16.46;89.70;97885.97;10291093;28;19970;-56
2022/08/10 05:12:25;;;;;;;20.25;12.25;;;;;;;16.59;89.10;97889.19;10289902;28;20062;-56
2022/08/10 05:17:24;;;;;;;15.13;10.65;;;;;;;16.72;88.60;97883.63;10247573;28;20129;-57
2022/08/10 05:22:23;;;;;;;14.27;10.20;;;;;;;16.91;88.20;97885.81;10244405;28;20156;-56
2022/08/10 05:27:22;;;;;;;14.63;10.82;;;;;;;17.09;87.15;97874.03;10250169;28;20057;-56
2022/08/10 05:32:21;;;;;;;;;;;;;;;17.36;86.46;97877.72;10246700;28;20029;-56
2022/08/10 05:37:21;;;;;;;12.27;9.97;;;;;;;17.60;85.95;97870.94;10249226;28;20019;-56
2022/08/10 05:42:21;;;;;;;13.15;10.13;;;;;;;17.90;84.93;97876.28;10238177;28;20077;-56
2022/08/10 05:47:21;;;;;;;16.42;10.20;;;;;;;18.15;83.26;97872.03;10235166;28;20058;-56
2022/08/10 05:52:20;;;;;;;19.65;10.45;;;;;;;18.37;82.87;97880.13;10243211;28;20074;-56
2022/08/10 05:57:22;;;;;;;15.10;9.70;;;;;;;18.62;81.31;97866.25;10254081;28;20162;-56
2022/08/10 06:02:27;;;;;;;15.38;10.23;;;;;;;18.90;80.76;97863.59;10228446;28;20121;-56
2022/08/10 06:07:28;;;;;;;12.10;9.15;;;;;;;19.20;80.29;97863.47;10255708;28;20077;-56
2022/08/10 06:12:29;;;;;;;13.15;8.95;;;;;;;19.49;79.41;97866.91;10255815;28;20062;-56
2022/08/10 06:17:29;;;;;;;12.68;9.02;;;;;;;19.77;78.38;97856.28;10255877;28;20060;-56
2022/08/10 06:22:32;;;;;;;13.20;7.93;;;;;;;20.08;76.49;97870.00;10220909;28;20058;-57
2022/08/10 06:27:32;;;;;;;10.95;7.80;;;;;;;20.41;73.97;97871.44;10228894;28;20531;-56
2022/08/10 06:32:31;;;;;;;11.85;8.27;;;;;;;20.69;70.09;97861.53;10255578;28;20070;-57
2022/08/10 06:37:30;;;;;;;11.85;7.72;;;;;;;21.01;70.13;97872.56;10249865;28;20070;-57
2022/08/10 06:42:39;;;;;;;16.40;9.85;;;;;;;21.42;67.69;97867.34;10254211;28;20054;-57
2022/08/10 06:47:54;;;;;;;9.68;7.15;;;;;;;21.89;66.41;97860.88;10254888;28;20165;-57
2022/08/10 06:52:55;;;;;;;8.55;6.97;;;;;;;22.28;62.60;97863.53;10253383;28;20516;-56
2022/08/10 06:57:55;;;;;;;10.68;7.10;;;;;;;22.61;62.08;97865.50;10252533;28;20081;-56
2022/08/10 07:02:57;;;;;;;9.18;6.50;;;;;;;23.04;57.55;97868.72;10250762;28;20074;-56
2022/08/10 07:07:59;;;;;;;7.07;6.07;;;;;;;23.27;55.61;97856.97;10252460;28;20066;-55
2022/08/10 07:13:01;;;;;;;6.70;5.88;;;;;;;23.64;55.69;97863.06;10253107;28;20081;-57
2022/08/10 07:18:02;;;;;;;8.50;6.30;;;;;;;23.58;53.00;97855.44;10253631;28;20070;-57
2022/08/10 07:23:02;;;;;;;7.97;6.05;;;;;;;23.53;53.44;97850.38;10251040;28;20081;-57
2022/08/10 07:28:02;;;;;;;9.18;6.40;;;;;;;23.55;53.27;97851.16;10252640;28;20089;-57
2022/08/10 07:33:02;;;;;;;9.50;6.30;;;;;;;23.49;53.92;97842.66;10237240;28;20089;-57
2022/08/10 07:38:03;;;;;;;8.02;6.28;;;;;;;23.93;53.80;97840.31;10252991;28;20069;-59
2022/08/10 07:43:03;;;;;;;7.47;6.65;;;;;;;24.03;52.72;97838.03;10249100;28;20921;-56
2022/08/10 07:48:08;;;;;;;9.85;6.85;;;;;;;23.92;52.52;97829.81;10234119;28;20083;-56
2022/08/10 07:53:16;;;;;;;8.68;6.20;;;;;;;24.18;52.24;97831.91;10243445;28;20179;-56
2022/08/10 07:58:17;;;;;;;8.32;6.47;;;;;;;24.32;51.34;97844.41;10251586;28;20053;-56
2022/08/10 08:03:23;;;;;;;7.90;6.05;;;;;;;24.49;50.40;97836.38;10253482;28;20073;-56
2022/08/10 08:08:23;;;;;;;10.90;6.03;;;;;;;24.52;49.95;97831.84;10246787;28;20121;-56
2022/08/10 08:13:23;;;;;;;7.60;5.70;;;;;;;24.63;49.80;97838.25;10237954;28;20630;-56
2022/08/10 08:18:24;;;;;;;7.40;5.75;;;;;;;24.71;48.49;97824.56;10244886;28;20141;-56
2022/08/10 08:23:24;;;;;;;6.95;5.88;;;;;;;24.88;48.64;97827.13;10249354;28;20480;-56
2022/08/10 08:28:27;;;;;;;7.28;5.60;;;;;;;25.26;47.12;97823.16;10250358;28;20073;-56
2022/08/10 08:33:27;;;;;;;7.20;5.75;;;;;;;25.32;46.03;97821.00;10243509;28;20154;-56
2022/08/10 08:38:28;;;;;;;6.75;5.70;;;;;;;25.56;46.53;97825.81;10251158;28;20068;-56
2022/08/10 08:43:51;;;;;;;7.20;5.80;;;;;;;25.94;46.39;97822.56;10248176;28;20069;-56
2022/08/10 08:49:11;;;;;;;8.52;5.72;;;;;;;26.27;45.21;97813.44;10249892;28;20061;-56
2022/08/10 08:54:47;;;;;;;8.07;5.93;;;;;;;26.55;44.52;97813.38;10254205;28;20038;-56
2022/08/10 09:00:08;;;;;;;12.13;6.53;;;;;;;26.72;44.47;97808.75;10236772;28;20081;-56
2022/08/10 09:05:27;;;;;;;8.10;5.63;;;;;;;26.78;44.64;97797.72;10240758;28;20074;-56
2022/08/10 09:10:29;;;;;;;6.93;6.22;;;;;;;27.04;43.07;97803.13;10249052;28;20074;-56
2022/08/10 09:15:52;;;;;;;7.38;6.07;;;;;;;27.10;43.07;97792.06;10248252;28;20062;-56
2022/08/10 09:21:05;;;;;;;7.22;5.50;;;;;;;27.72;41.29;97786.03;10242562;28;20066;-56
2022/08/10 09:26:17;;;;;;;7.00;6.13;;;;;;;28.02;40.42;97796.34;10250829;28;20074;-56
2022/08/10 09:31:21;;;;;;;6.97;5.85;;;;;;;28.43;39.04;97793.41;10251467;28;20084;-56
2022/08/10 09:36:41;;;;;;;6.03;5.40;;;;;;;28.69;39.41;97805.81;10251169;28;20086;-56
2022/08/10 09:41:57;;;;;;;6.25;5.65;;;;;;;28.96;39.07;97789.53;10250970;28;20077;-57
2022/08/10 09:47:15;;;;;;;8.93;6.63;;;;;;;27.61;41.63;97798.31;10242412;28;20073;-57
2022/08/10 09:52:59;;;;;;;9.20;6.30;;;;;;;27.25;43.56;97790.16;10245563;28;20074;-57
2022/08/10 09:58:13;;;;;;;9.15;6.65;;;;;;;27.23;43.53;97797.41;10247307;28;20076;-57
2022/08/10 10:03:23;;;;;;;9.27;6.40;;;;;;;26.96;44.01;97780.53;10219302;28;20074;-57
2022/08/10 10:08:40;;;;;;;8.68;6.30;;;;;;;26.65;44.79;97797.69;10225509;28;20516;-57
2022/08/10 10:13:48;;;;;;;7.57;6.43;;;;;;;26.45;45.23;97800.78;10249554;28;20704;-57
2022/08/10 10:19:00;;;;;;;8.05;6.00;;;;;;;26.28;45.90;97802.72;10243135;28;20054;-57
2022/08/10 10:24:23;;;;;;;9.27;6.50;;;;;;;26.58;45.29;97802.53;10250414;28;20154;-57
2022/08/10 10:30:01;;;;;;;8.25;6.25;;;;;;;26.95;44.12;97784.13;10248122;28;20066;-57
2022/08/10 10:35:07;;;;;;;10.02;6.07;;;;;;;27.34;42.52;97785.06;10253492;28;20077;-57
2022/08/10 10:40:08;;;;;;;8.55;5.88;;;;;;;27.39;42.62;97779.41;10253988;28;20066;-57
2022/08/10 10:45:29;;;;;;;6.10;5.05;;;;;;;27.22;43.04;97769.06;10251983;28;20057;-57
2022/08/10 10:51:06;;;;;;;6.90;4.63;;;;;;;26.93;44.36;97763.91;10240904;28;20098;-57
2022/08/10 10:56:50;;;;;;;5.95;4.78;;;;;;;26.77;45.24;97758.75;10208767;28;20086;-57
2022/08/10 11:02:17;;;;;;;6.65;5.07;;;;;;;27.07;44.65;97765.63;10231712;28;20077;-56
2022/08/10 11:07:23;;;;;;;7.25;5.30;;;;;;;27.27;43.76;97764.28;10247229;28;20104;-57
2022/08/10 11:12:33;;;;;;;7.88;5.45;;;;;;;27.40;42.96;97757.13;10249313;28;20066;-57
2022/08/10 11:17:36;;;;;;;8.68;5.55;;;;;;;27.37;43.34;97758.19;10236062;28;20631;-57
2022/08/10 11:22:56;;;;;;;9.05;5.43;;;;;;;27.42;43.06;97756.09;10238340;28;20070;-57
2022/08/10 11:28:16;;;;;;;8.35;5.60;;;;;;;27.66;42.65;97757.13;10220497;28;20149;-57
2022/08/10 11:33:32;;;;;;;10.25;5.22;;;;;;;27.85;42.79;97759.38;10249860;28;20085;-57
2022/08/10 11:39:08;;;;;;;9.65;5.32;;;;;;;27.84;41.49;97763.84;10231919;28;20070;-56
2022/08/10 11:44:16;;;;;;;5.75;5.07;;;;;;;28.04;41.12;97751.75;10246450;28;20077;-57
2022/08/10 11:49:30;;;;;;;5.47;4.75;;;;;;;28.23;40.66;97751.28;10226170;28;20684;-57
2022/08/10 11:54:41;;;;;;;6.13;4.55;;;;;;;27.95;40.08;97741.75;10230677;28;20085;-57
2022/08/10 11:59:55;;;;;;;7.47;5.07;;;;;;;27.64;40.48;97738.59;10235194;28;20519;-57
2022/08/10 12:05:24;;;;;;;6.30;4.75;;;;;;;27.74;41.18;97739.66;10220953;28;20174;-56
2022/08/10 12:10:25;;;;;;;8.23;5.05;;;;;;;28.21;40.36;97727.38;10234816;28;20082;-56
2022/08/10 12:15:40;;;;;;;7.80;5.13;;;;;;;28.27;39.34;97728.75;10235672;28;20081;-56
2022/08/10 12:20:42;;;;;;;5.78;4.45;;;;;;;28.43;39.02;97737.34;10241460;28;20169;-58
2022/08/10 12:26:11;;;;;;;6.07;5.00;;;;;;;28.81;38.95;97724.78;10249742;28;20730;-57
2022/08/10 12:31:12;;;;;;;5.40;4.60;;;;;;;29.05;38.47;97711.38;10254149;28;20077;-57
2022/08/10 12:36:30;;;;;;;8.65;4.93;;;;;;;29.03;37.94;97700.78;10255390;28;20097;-57
2022/08/10 12:41:36;;;;;;;5.95;5.10;;;;;;;28.74;37.74;97689.69;10244637;28;20085;-57
2022/08/10 12:46:49;;;;;;;5.70;4.80;;;;;;;28.78;37.92;97692.94;10223248;28;20121;-57
2022/08/10 12:52:28;;;;;;;6.47;4.95;;;;;;;29.17;37.73;97693.53;10249901;28;20077;-57
2022/08/10 12:57:28;;;;;;;8.52;6.28;;;;;;;29.15;36.48;97690.13;10230322;28;20128;-56
2022/08/10 13:02:31;;;;;;;8.05;4.95;;;;;;;29.34;36.71;97677.03;10224895;28;20058;-57
2022/08/10 13:07:32;;;;;;;5.30;4.40;;;;;;;29.09;36.43;97673.59;10226202;28;20084;-57
2022/08/10 13:12:36;;;;;;;6.47;5.05;;;;;;;29.03;36.29;97670.56;10250315;28;20550;-57
2022/08/10 13:17:37;;;;;;;6.82;5.03;;;;;;;28.47;37.31;97684.56;10236765;28;20066;-57
2022/08/10 13:22:40;;;;;;;7.00;5.00;;;;;;;28.33;37.73;97679.41;10241736;28;20059;-57
2022/08/10 13:27:41;;;;;;;6.97;4.43;;;;;;;27.99;38.08;97684.56;10219196;28;20078;-57
2022/08/10 13:32:48;;;;;;;8.63;4.50;;;;;;;27.81;38.11;97676.06;10234303;28;20113;-57
2022/08/10 13:37:51;;;;;;;7.07;4.70;;;;;;;27.65;38.61;97684.31;10249244;28;20182;-57
2022/08/10 13:42:51;;;;;;;6.35;4.53;;;;;;;27.24;38.55;97687.22;10230088;28;20074;-57
2022/08/10 13:48:05;;;;;;;8.32;4.95;;;;;;;27.48;39.10;97687.34;10228085;28;20523;-57
2022/08/10 13:53:08;;;;;;;5.03;4.53;;;;;;;27.55;36.99;97683.28;10221108;28;20125;-57
2022/08/10 13:58:09;;;;;;;6.68;4.22;;;;;;;27.97;36.33;97675.81;10233119;28;20138;-57
2022/08/10 14:03:11;;;;;;;7.15;5.30;;;;;;;28.08;34.41;97673.25;10221267;28;20062;-58
2022/08/10 14:08:15;;;;;;;4.63;3.97;;;;;;;28.07;35.18;97687.53;10235363;28;20534;-57
2022/08/10 14:13:17;;;;;;;5.78;4.10;;;;;;;28.12;34.67;97698.72;10256347;28;20769;-57
2022/08/10 14:18:17;;;;;;;4.50;3.97;;;;;;;28.14;35.33;97696.78;10255674;28;20089;-57
2022/08/10 14:23:18;;;;;;;5.30;3.95;;;;;;;27.97;35.18;97687.31;10254856;28;20053;-58
2022/08/10 14:28:25;;;;;;;5.40;4.13;;;;;;;27.55;36.33;97705.44;10250633;28;20129;-58
2022/08/10 14:33:26;;;;;;;5.15;4.13;;;;;;;27.18;37.03;97715.13;10213632;28;20125;-57
2022/08/10 14:38:31;;;;;;;8.32;4.53;;;;;;;26.90;37.68;97711.69;10237034;28;20084;-57
2022/08/10 14:43:38;;;;;;;5.45;4.45;;;;;;;26.62;38.53;97707.34;10258046;28;20093;-57
2022/08/10 14:48:41;;;;;;;5.20;4.38;;;;;;;26.31;39.94;97711.22;10255339;28;20065;-56
2022/08/10 14:53:40;;;;;;;6.82;4.90;;;;;;;26.08;40.13;97715.34;10257471;28;20085;-57
2022/08/10 14:58:47;;;;;;;7.25;4.97;;;;;;;25.95;40.24;97717.94;10257579;28;20066;-57
2022/08/10 15:03:55;;;;;;;7.30;4.70;;;;;;;25.68;40.87;97725.84;10258184;28;20061;-57
2022/08/10 15:09:02;;;;;;;5.35;4.82;;;;;;;25.60;41.10;97718.38;10250501;28;20072;-57
2022/08/10 15:14:04;;;;;;;6.33;5.07;;;;;;;25.60;41.11;97728.13;10258291;28;20567;-57
2022/08/10 15:19:04;;;;;;;7.32;4.90;;;;;;;25.52;41.51;97729.44;10258642;28;20069;-57
2022/08/10 15:24:05;;;;;;;6.50;5.30;;;;;;;25.59;41.39;97726.44;10254810;28;20073;-57
2022/08/10 15:29:07;;;;;;;6.75;5.10;;;;;;;25.69;41.69;97723.13;10256196;28;20073;-57
2022/08/10 15:39:33;;;;;;;7.30;4.97;;;;;;;25.74;41.68;97726.34;10254895;28;20496;-58
2022/08/10 15:44:37;;;;;;;6.20;5.33;;;;;;;25.72;41.95;97727.38;10252978;28;20069;-57
2022/08/10 15:49:46;;;;;;;5.55;5.03;;;;;;;25.58;41.84;97722.94;10251511;28;20093;-57
2022/08/10 15:54:56;;;;;;;7.10;4.88;;;;;;;25.43;42.49;97731.81;10252647;28;20074;-57
2022/08/10 16:00:08;;;;;;;6.28;5.03;;;;;;;25.39;42.34;97730.31;10251625;28;20078;-58
2022/08/10 16:05:15;;;;;;;8.05;4.70;;;;;;;25.24;42.86;97729.44;10252280;28;20081;-56
2022/08/10 16:10:19;;;;;;;6.78;4.90;;;;;;;25.15;42.88;97725.53;10247761;28;20134;-56
2022/08/10 16:15:23;;;;;;;6.55;4.65;;;;;;;24.99;42.92;97716.78;10251782;28;20072;-56
2022/08/10 16:20:32;;;;;;;7.88;4.70;;;;;;;25.06;42.33;97728.75;10250646;28;20062;-57
2022/08/10 16:25:31;;;;;;;;;;;;;;;25.04;42.43;97736.81;10252474;28;20066;-57
2022/08/10 16:30:38;;;;;;;6.57;4.80;;;;;;;25.09;42.15;97739.19;10250604;28;20005;-57
2022/08/10 16:35:39;;;;;;;6.65;4.57;;;;;;;25.10;42.24;97739.06;10248003;28;20097;-57
2022/08/10 16:40:41;;;;;;;6.88;4.50;;;;;;;24.89;42.57;97743.03;10250553;28;20130;-56
2022/08/10 16:45:45;;;;;;;7.38;4.93;;;;;;;24.72;43.16;97741.34;10248429;28;20069;-57
2022/08/10 16:50:54;;;;;;;5.35;4.43;;;;;;;24.60;43.11;97742.91;10249152;28;20125;-56
2022/08/10 16:55:54;;;;;;;;;;;;;;;24.48;43.92;97744.47;10250571;28;20077;-57
2022/08/10 17:01:09;;;;;;;5.50;4.35;;;;;;;24.42;44.11;97750.13;10250921;28;19941;-57
2022/08/10 17:06:12;;;;;;;6.10;4.80;;;;;;;24.33;44.62;97755.94;10243289;28;20125;-57
2022/08/10 17:11:13;;;;;;;6.85;5.18;;;;;;;24.23;45.00;97752.97;10248930;28;20584;-57
2022/08/10 17:16:15;;;;;;;6.93;5.28;;;;;;;24.14;45.48;97755.25;10233843;28;20132;-57
2022/08/10 17:21:23;;;;;;;6.47;4.80;;;;;;;24.09;45.97;97752.84;10249729;28;20070;-57
2022/08/10 17:26:25;;;;;;;8.33;5.37;;;;;;;24.05;45.74;97761.91;10248850;28;20062;-57
2022/08/10 17:31:29;;;;;;;9.65;5.85;;;;;;;23.90;46.53;97762.78;10248053;28;20078;-57
2022/08/10 17:36:35;;;;;;;7.47;6.00;;;;;;;23.75;46.78;97775.94;10221600;28;20532;-57
2022/08/10 17:41:36;;;;;;;6.82;5.47;;;;;;;23.50;47.35;97779.03;10250865;28;20069;-57
2022/08/10 17:46:38;;;;;;;8.23;5.80;;;;;;;23.52;47.77;97784.25;10256901;28;20084;-57
2022/08/10 17:51:42;;;;;;;8.45;5.50;;;;;;;23.40;48.33;97786.56;10257267;28;20113;-58
2022/08/10 17:56:41;;;;;;;8.75;5.63;;;;;;;23.15;48.88;97780.84;10284556;28;20077;-57
2022/08/10 18:01:41;;;;;;;9.35;5.05;;;;;;;23.17;49.44;97793.06;10255396;28;20057;-56
2022/08/10 18:06:42;;;;;;;5.53;4.90;;;;;;;23.15;50.00;97802.00;10255417;28;20062;-57
2022/08/10 18:11:46;;;;;;;7.03;5.20;;;;;;;23.07;50.49;97804.19;10225813;28;20082;-57
2022/08/10 18:16:47;;;;;;;7.15;5.60;;;;;;;23.05;50.45;97801.63;10230098;28;20137;-57
2022/08/10 18:21:48;;;;;;;8.13;5.47;;;;;;;23.08;50.92;97806.75;10225730;28;20119;-57
2022/08/10 18:26:51;;;;;;;7.63;5.80;;;;;;;23.14;50.77;97801.16;10222646;28;20073;-57
2022/08/10 18:32:01;;;;;;;13.45;6.55;;;;;;;23.14;50.82;97806.47;10229478;28;20062;-57
2022/08/10 18:37:04;;;;;;;8.70;6.10;;;;;;;23.13;51.24;97817.97;10211230;28;20081;-57
2022/08/10 18:42:53;;;;;;;10.45;6.35;;;;;;;23.11;52.09;97809.25;10209787;28;20070;-57
2022/08/10 18:48:06;;;;;;;11.60;7.28;;;;;;;23.08;52.62;97819.16;10209428;28;20203;-57
2022/08/10 18:53:16;;;;;;;9.13;7.55;;;;;;;23.01;53.46;97822.09;10244966;28;20162;-57
2022/08/10 18:58:39;;;;;;;11.63;7.30;;;;;;;22.94;53.52;97812.75;10252476;28;20464;-57
2022/08/10 19:04:00;;;;;;;9.40;7.10;;;;;;;22.91;55.10;97815.56;10251370;28;20065;-57
2022/08/10 19:09:02;;;;;;;9.98;6.78;;;;;;;22.88;55.47;97817.47;10251639;28;20073;-57
2022/08/10 19:14:05;;;;;;;7.93;6.35;;;;;;;22.78;56.33;97820.59;10251909;28;20084;-56
2022/08/10 19:19:20;;;;;;;9.73;6.22;;;;;;;22.69;57.73;97821.00;10251257;28;20081;-56
2022/08/10 19:24:33;;;;;;;7.45;6.00;;;;;;;22.60;57.71;97819.69;10242964;28;20121;-57
2022/08/10 19:29:43;;;;;;;9.68;6.10;;;;;;;22.51;58.41;97824.56;10211893;28;20070;-58
2022/08/10 19:34:52;;;;;;;7.97;6.18;;;;;;;22.42;58.95;97811.78;10189257;28;1277685;-57
2022/08/10 19:39:59;;;;;;;;;;;;;;;22.45;60.63;97831.00;10254286;28;20069;-57
2022/08/10 19:45:16;;;;;;;8.60;6.57;;;;;;;22.33;61.02;97826.28;10257744;28;19952;-57
2022/08/10 19:50:26;;;;;;;9.30;6.82;;;;;;;22.25;62.71;97821.38;10256077;28;20066;-56
2022/08/10 19:55:57;;;;;;;9.07;6.80;;;;;;;22.22;62.76;97821.50;10256490;28;20467;-57
2022/08/10 20:01:05;;;;;;;8.45;6.43;;;;;;;22.25;61.97;97821.38;10239243;28;20064;-58
2022/08/10 20:06:32;;;;;;;8.25;6.05;;;;;;;22.29;60.91;97828.22;10255636;28;20081;-58
2022/08/10 20:11:47;;;;;;;7.72;5.60;;;;;;;22.17;59.58;97826.16;10251100;28;20131;-57
2022/08/10 20:16:47;;;;;;;11.02;6.68;;;;;;;22.01;59.95;97830.44;10226232;28;20068;-57
2022/08/10 20:21:52;;;;;;;8.48;6.18;;;;;;;21.95;60.19;97827.13;10243364;28;20062;-56
2022/08/10 20:27:04;;;;;;;8.98;5.68;;;;;;;21.94;60.51;97828.06;10254324;28;20068;-56
2022/08/10 20:32:11;;;;;;;10.55;5.90;;;;;;;21.95;60.23;97829.75;10254398;28;20504;-58
2022/08/10 20:37:26;;;;;;;9.60;6.18;;;;;;;21.98;60.21;97834.03;10252262;28;20081;-57
2022/08/10 20:42:42;;;;;;;9.90;5.45;;;;;;;21.95;60.25;97832.41;10252104;28;20150;-57
2022/08/10 20:48:10;;;;;;;9.70;6.70;;;;;;;21.95;60.36;97837.69;10249780;28;20069;-57
2022/08/10 20:53:13;;;;;;;7.70;6.40;;;;;;;21.92;60.43;97839.59;10251375;28;20469;-57
2022/08/10 20:58:49;;;;;;;7.95;5.63;;;;;;;21.74;62.01;97836.03;10250275;28;20100;-57
2022/08/10 21:03:50;;;;;;;7.22;6.40;;;;;;;21.42;63.85;97834.81;10223919;28;20119;-57
2022/08/10 21:09:01;;;;;;;8.60;6.25;;;;;;;21.37;64.66;97837.63;10239533;28;20069;-57
2022/08/10 21:14:09;;;;;;;10.27;6.05;;;;;;;21.39;64.71;97830.50;10217360;28;20063;-56
2022/08/10 21:19:29;;;;;;;8.85;6.63;;;;;;;21.41;65.17;97828.66;10211389;28;20074;-56
2022/08/10 21:24:51;;;;;;;8.68;6.40;;;;;;;21.49;64.79;97834.47;10208667;28;20062;-57
2022/08/10 22:51:17;;;;;;;16.00;12.40;;;;;;;19.81;88.81;97816.59;10260206;28;20066;-57
2022/08/10 23:02:03;;;;;;;18.63;13.45;;;;;;;19.69;90.55;97824.94;10260127;28;20468;-58
2022/08/10 23:07:17;;;;;;;22.63;14.63;;;;;;;19.62;91.24;97812.91;10258406;28;20074;-56
2022/08/10 23:12:29;;;;;;;17.88;13.43;;;;;;;19.52;91.42;97804.47;10259336;28;20615;-56
2022/08/10 23:23:02;;;;;;;15.63;13.27;;;;;;;19.41;92.08;97803.97;10225031;28;20504;-55
2022/08/10 23:28:05;;;;;;;16.20;13.25;;;;;;;19.36;92.24;97808.56;10219069;28;20074;-56
2022/08/10 23:33:07;;;;;;;19.33;14.27;;;;;;;19.26;92.55;97808.03;10236579;28;20081;-56
2022/08/10 23:38:07;;;;;;;17.70;13.40;;;;;;;19.11;93.05;97804.16;10257359;28;20081;-56
2022/08/10 23:43:06;;;;;;;20.25;14.07;;;;;;;19.09;93.28;97806.00;10252811;28;20057;-56
2022/08/10 23:48:06;;;;;;;18.05;14.05;;;;;;;19.08;93.81;97808.66;10248964;28;20069;-56
2022/08/10 23:53:07;;;;;;;19.35;14.15;;;;;;;19.08;94.17;97803.41;10254355;28;20061;-57
2022/08/10 23:58:09;;;;;;;17.90;13.90;;;;;;;19.08;94.49;97806.03;10253362;28;20082;-58
